KCSV/CSV METAR and TAF weather

Enter ICAO airport designator
Station Type Date Time Source
KCSV METAR 2019/04/18 19:53 UTC NOAA

KCSV 181953Z AUTO 16010G19KT 130V200 10SM SCT047 SCT055 22/12 A2982 RMK AO2 SLP078 T02220117


Station Type Date Time Source
KCSV Decoded METAR 2019/04/18 19:53 UTC NOAA

CROSSVILLE MEMORIAL AIRPORT , TN, United States (KCSV) 35-57N 85-05W 570M
Apr 18, 2019 - 03:53 PM EDT / 2019.04.18 1953 UTC
Wind: from the SSE (160 degrees) at 12 MPH (10 KT) gusting to 22 MPH (19 KT) (direction variable):0
Visibility: 10 mile(s):0
Sky conditions: partly cloudy
Temperature: 72.0 F (22.2 C)
Dew Point: 53.1 F (11.7 C)
Relative Humidity: 51%
Pressure (altimeter): 29.82 in. Hg (1009 hPa)
ob: KCSV 181953Z AUTO 16010G19KT 130V200 10SM SCT047 SCT055 22/12 A2982 RMK AO2 SLP078 T02220117
cycle: 20

Station Type Date Time Source
KCSV TAF 2019/04/18 18:22 UTC NOAA

TAF KCSV 181720Z 1818/1918 18010G20KT P6SM BKN040
FM190500 18014G24KT 2SM TSRA BR BKN025CB OVC040
FM190900 21010G20KT 5SM -SHRA OVC007
FM191600 31009KT 5SM -SHRA OVC007

Example: see airport list